createdAt,value
2022-10-12T00:01:24.846Z,100124.65
2022-10-12T00:06:32.135Z,100120.03
2022-10-12T00:11:41.078Z,100122.79
2022-10-12T00:16:48.131Z,100118.23
2022-10-12T00:21:53.865Z,100120.39
2022-10-12T00:27:01.544Z,100121.39
2022-10-12T00:32:10.978Z,100124.26
2022-10-12T00:37:18.390Z,100125.68
2022-10-12T00:42:29.063Z,100125.29
2022-10-12T00:47:39.500Z,100124.52
2022-10-12T00:52:52.088Z,100122.12
2022-10-12T00:58:00.238Z,100122.79
2022-10-12T01:03:09.403Z,100126.45
2022-10-12T01:08:17.057Z,100116.92
2022-10-12T01:13:24.258Z,100124.61
2022-10-12T01:18:32.912Z,100121.05
2022-10-12T01:24:12.804Z,100120.96
2022-10-12T01:29:45.512Z,100122.77
2022-10-12T01:35:00.702Z,100122.63
2022-10-12T01:40:14.495Z,100120.75
2022-10-12T01:45:23.032Z,100121.85
2022-10-12T01:50:38.287Z,100118.34
2022-10-12T01:55:55.887Z,100122.23
2022-10-12T02:01:08.917Z,100120.66
2022-10-12T02:06:19.992Z,100121.65
2022-10-12T02:11:28.943Z,100124.63
2022-10-12T02:16:39.656Z,100123.75
2022-10-12T02:21:49.231Z,100125.05
2022-10-12T02:26:58.021Z,100127.27
2022-10-12T02:32:11.553Z,100124.88
2022-10-12T02:37:32.026Z,100126.64
2022-10-12T02:43:08.827Z,100125.40
2022-10-12T02:48:15.435Z,100130.59
2022-10-12T02:53:25.351Z,100133.61
2022-10-12T02:58:33.020Z,100130.59
2022-10-12T03:03:41.280Z,100130.45
2022-10-12T03:08:48.213Z,100138.36
2022-10-12T03:13:57.551Z,100137.80
2022-10-12T03:19:05.160Z,100137.16
2022-10-12T03:24:13.247Z,100135.37
2022-10-12T03:29:20.124Z,100134.90
2022-10-12T03:34:27.279Z,100130.61
2022-10-12T03:39:32.844Z,100133.03
2022-10-12T03:44:39.744Z,100131.92
2022-10-12T03:49:49.338Z,100136.11
2022-10-12T03:54:54.562Z,100133.77
2022-10-12T04:00:01.758Z,100137.91
2022-10-12T04:05:11.491Z,100140.12
2022-10-12T04:10:19.315Z,100142.36
2022-10-12T04:15:26.938Z,100139.81
2022-10-12T04:20:34.579Z,100144.03
2022-10-12T04:25:43.222Z,100144.62
2022-10-12T04:30:50.775Z,100141.53
2022-10-12T04:35:58.257Z,100148.95
2022-10-12T04:41:05.297Z,100152.77
2022-10-12T04:46:12.663Z,100152.91
2022-10-12T04:51:19.697Z,100153.81
2022-10-12T04:56:26.801Z,100151.65
2022-10-12T05:01:34.112Z,100153.62
2022-10-12T05:06:39.547Z,100152.22
2022-10-12T05:11:48.135Z,100155.45
2022-10-12T05:16:55.355Z,100158.02
2022-10-12T05:22:01.140Z,100161.91
2022-10-12T05:27:08.136Z,100168.16
2022-10-12T05:32:15.753Z,100176.23
2022-10-12T05:37:23.445Z,100174.55
2022-10-12T05:42:30.592Z,100171.68
2022-10-12T05:47:36.266Z,100172.80
2022-10-12T05:52:44.065Z,100168.91
2022-10-12T05:57:52.097Z,100169.39
2022-10-12T06:02:59.543Z,100174.34
2022-10-12T06:08:05.506Z,100181.89
2022-10-12T06:13:12.733Z,100183.73
2022-10-12T06:18:18.697Z,100182.12
2022-10-12T06:23:26.614Z,100184.10
2022-10-12T06:28:35.304Z,100185.80
2022-10-12T06:33:42.674Z,100189.36
2022-10-12T06:38:49.656Z,100186.10
2022-10-12T06:43:56.817Z,100189.40
2022-10-12T06:49:04.380Z,100190.77
2022-10-12T06:54:11.464Z,100195.60
2022-10-12T06:59:19.486Z,100194.13
2022-10-12T07:04:26.733Z,100200.67
2022-10-12T07:09:32.764Z,100198.29
2022-10-12T07:14:40.132Z,100203.19
2022-10-12T07:19:47.966Z,100199.74
2022-10-12T07:24:53.557Z,100198.97
2022-10-12T07:30:00.535Z,100196.29
2022-10-12T07:35:09.391Z,100192.92
2022-10-12T07:40:17.839Z,100192.48
2022-10-12T07:45:25.577Z,100189.42
2022-10-12T07:50:33.249Z,100186.54
2022-10-12T07:55:40.925Z,100180.75
2022-10-12T08:00:48.324Z,100181.85
2022-10-12T08:05:54.625Z,100182.48
2022-10-12T08:11:05.753Z,100182.31
2022-10-12T08:16:15.416Z,100182.25
2022-10-12T08:21:22.639Z,100182.10
2022-10-12T08:26:30.968Z,100185.70
2022-10-12T08:31:38.308Z,100180.55
2022-10-12T08:36:45.406Z,100186.73
2022-10-12T08:41:54.127Z,100177.43
2022-10-12T08:47:05.885Z,100180.90
2022-10-12T08:52:24.338Z,100177.34
2022-10-12T08:57:31.935Z,100181.30
2022-10-12T09:02:52.976Z,100179.98
2022-10-12T09:08:05.886Z,100185.61
2022-10-12T09:13:27.316Z,100183.06
2022-10-12T09:18:41.529Z,100184.66
2022-10-12T09:23:49.566Z,100180.89
2022-10-12T09:29:00.745Z,100176.55
2022-10-12T09:34:11.423Z,100175.61
2022-10-12T09:39:28.319Z,100179.33
2022-10-12T09:44:40.490Z,100177.82
2022-10-12T09:49:50.444Z,100178.89
2022-10-12T09:55:02.488Z,100175.63
2022-10-12T10:00:28.576Z,100171.76
2022-10-12T10:05:37.800Z,100166.77
2022-10-12T10:10:51.730Z,100170.67
2022-10-12T10:16:08.138Z,100165.75
2022-10-12T10:21:17.880Z,100165.05
2022-10-12T10:26:26.843Z,100157.90
2022-10-12T10:31:35.890Z,100159.27
2022-10-12T10:36:46.768Z,100157.48
2022-10-12T10:41:56.434Z,100154.64
2022-10-12T10:47:09.935Z,100157.01
2022-10-12T10:52:28.339Z,100151.89
2022-10-12T10:57:38.990Z,100145.33
2022-10-12T11:02:52.406Z,100145.77
2022-10-12T11:08:02.753Z,100145.30
2022-10-12T11:13:29.742Z,100148.85
2022-10-12T11:18:43.866Z,100145.20
2022-10-12T11:23:54.847Z,100142.11
2022-10-12T11:29:03.567Z,100145.14
2022-10-12T11:34:17.308Z,100140.15
2022-10-12T11:39:33.555Z,100134.71
2022-10-12T11:44:45.594Z,100130.92
2022-10-12T11:49:59.371Z,100129.84
2022-10-12T11:55:27.006Z,100130.89
2022-10-12T12:00:45.348Z,100127.77
2022-10-12T12:05:52.649Z,100123.94
2022-10-12T12:11:23.115Z,100118.86
2022-10-12T12:16:44.051Z,100117.77
2022-10-12T12:22:18.815Z,100114.90
2022-10-12T12:27:33.732Z,100109.00
2022-10-12T12:32:50.755Z,100109.94
2022-10-12T12:38:25.096Z,100105.36
2022-10-12T12:43:57.476Z,100105.60
2022-10-12T12:49:26.247Z,100101.00
2022-10-12T12:54:36.471Z,100089.54
2022-10-12T13:00:12.370Z,100086.21
2022-10-12T13:05:53.408Z,100084.44
2022-10-12T13:11:24.359Z,100083.60
2022-10-12T13:22:27.544Z,100076.64
2022-10-12T13:27:42.466Z,100079.91
2022-10-12T13:32:57.607Z,100079.27
2022-10-12T13:38:08.133Z,100076.26
2022-10-12T13:43:42.135Z,100071.70
2022-10-12T13:48:59.801Z,100071.08
2022-10-12T13:54:21.690Z,100067.54
2022-10-12T13:59:32.551Z,100067.53
2022-10-12T14:04:39.866Z,100067.15
2022-10-12T14:09:54.810Z,100061.61
2022-10-12T14:15:04.080Z,100055.75
2022-10-12T14:20:29.865Z,100054.92
2022-10-12T14:25:36.996Z,100055.74
2022-10-12T14:30:54.404Z,100053.11
2022-10-12T14:41:39.415Z,100044.06
2022-10-12T14:46:55.184Z,100039.02
2022-10-12T14:52:04.359Z,100039.88
2022-10-12T14:57:17.198Z,100034.83
2022-10-12T15:02:27.895Z,100035.50
2022-10-12T15:07:36.453Z,100034.86
2022-10-12T15:12:44.427Z,100031.64
2022-10-12T15:17:51.729Z,100034.94
2022-10-12T15:22:59.232Z,100037.21
2022-10-12T15:28:07.664Z,100046.25
2022-10-12T15:33:16.850Z,100045.05
2022-10-12T15:38:24.420Z,100045.66
2022-10-12T15:43:33.818Z,100046.29
2022-10-12T15:48:44.276Z,100042.95
2022-10-12T15:53:52.444Z,100039.40
2022-10-12T15:59:02.100Z,100042.02
2022-10-12T16:04:14.517Z,100041.02
2022-10-12T16:09:22.179Z,100046.32
2022-10-12T16:14:29.394Z,100046.25
2022-10-12T16:19:37.163Z,100041.02
2022-10-12T16:24:44.883Z,100040.74
2022-10-12T16:29:52.285Z,100044.21
2022-10-12T16:34:59.511Z,100039.14
2022-10-12T16:40:09.178Z,100035.89
2022-10-12T16:45:17.580Z,100040.44
2022-10-12T16:50:26.756Z,100037.25
2022-10-12T16:55:54.258Z,100038.30
2022-10-12T17:01:08.552Z,100045.98
2022-10-12T17:06:16.212Z,100043.41
2022-10-12T17:11:23.575Z,100042.52
2022-10-12T17:16:48.500Z,100041.73
2022-10-12T17:21:59.212Z,100040.94
2022-10-12T17:27:08.523Z,100040.84
2022-10-12T17:32:16.486Z,100044.94
2022-10-12T17:37:25.403Z,100046.19
2022-10-12T17:42:32.804Z,100043.03
2022-10-12T17:47:41.595Z,100053.27
2022-10-12T17:52:48.683Z,100049.04
2022-10-12T17:57:56.229Z,100048.35
2022-10-12T18:03:03.425Z,100041.42
2022-10-12T18:08:09.067Z,100048.83
2022-10-12T18:13:17.229Z,100046.41
2022-10-12T18:18:24.902Z,100043.23
2022-10-12T18:23:32.204Z,100042.08
2022-10-12T18:28:40.754Z,100040.80
2022-10-12T18:33:48.209Z,100035.24
2022-10-12T18:38:57.261Z,100031.41
2022-10-12T18:44:05.480Z,100035.64
2022-10-12T18:49:14.307Z,100035.14
2022-10-12T18:54:22.702Z,100034.95
2022-10-12T18:59:29.818Z,100030.31
2022-10-12T19:04:37.309Z,100031.48
2022-10-12T19:09:46.351Z,100030.18
2022-10-12T19:14:54.014Z,100030.31
2022-10-12T19:20:03.442Z,100032.30
2022-10-12T19:25:12.975Z,100032.02
2022-10-12T19:30:21.697Z,100034.60
2022-10-12T19:35:31.459Z,100031.79
2022-10-12T19:40:39.759Z,100033.89
2022-10-12T19:45:47.652Z,100038.17
2022-10-12T19:51:02.967Z,100041.58
2022-10-12T19:56:14.810Z,100044.63
2022-10-12T20:01:23.922Z,100039.80
2022-10-12T20:06:32.940Z,100040.52
2022-10-12T20:11:40.722Z,100038.89
2022-10-12T20:16:50.148Z,100039.27
2022-10-12T20:21:57.461Z,100037.09
2022-10-12T20:27:03.006Z,100037.11
2022-10-12T20:32:10.376Z,100044.16
2022-10-12T20:37:21.095Z,100038.45
2022-10-12T20:42:29.126Z,100042.52
2022-10-12T20:47:36.423Z,100047.68
2022-10-12T20:52:43.435Z,100046.38
2022-10-12T20:57:51.234Z,100043.20
2022-10-12T21:03:14.358Z,100034.75
2022-10-12T21:08:21.819Z,100037.88
2022-10-12T21:13:30.853Z,100039.64
2022-10-12T21:18:39.423Z,100041.95
2022-10-12T21:23:53.402Z,100039.14
2022-10-12T21:29:01.119Z,100037.46
2022-10-12T21:34:13.068Z,100034.17
2022-10-12T21:39:21.098Z,100031.80
2022-10-12T21:44:28.242Z,100030.60
2022-10-12T21:49:34.592Z,100031.63
2022-10-12T21:54:43.284Z,100027.08
2022-10-12T21:59:52.369Z,100029.23
2022-10-12T22:05:01.412Z,100026.39
2022-10-12T22:10:10.825Z,100031.29
2022-10-12T22:15:18.906Z,100028.34
2022-10-12T22:20:26.934Z,100031.52
2022-10-12T22:25:34.583Z,100032.04
2022-10-12T22:30:43.950Z,100030.91
2022-10-12T22:35:57.222Z,100036.48
2022-10-12T22:41:07.125Z,100040.58
2022-10-12T22:46:15.527Z,100034.25
2022-10-12T22:51:30.598Z,100033.40
2022-10-12T22:56:37.961Z,100030.33
2022-10-12T23:01:47.610Z,100028.25
2022-10-12T23:06:54.712Z,100029.85
2022-10-12T23:12:02.036Z,100029.80
2022-10-12T23:17:09.393Z,100032.30
2022-10-12T23:22:17.756Z,100028.34
2022-10-12T23:27:25.660Z,100017.47
2022-10-12T23:32:33.808Z,100011.11
2022-10-12T23:37:44.206Z,100008.71
2022-10-12T23:42:52.073Z,100014.30
2022-10-12T23:47:59.240Z,100015.63
2022-10-12T23:53:07.519Z,100021.30
2022-10-12T23:58:15.824Z,100022.64
